クライストチャーチ の空港の天気 - METARとTAF

クライストチャーチ国際空港 ( NZCH / CHC ) - ニュージーランド クライストチャーチ
飛行場実況気象(Metar)
観測時間06/18 11:30 NZST (06/17 23:30 UTC)
風向・風速南西 6m/s
視程10km以上
天気現象
全天の8割程度の雲 雲底高度 1160m
気温9℃
湿度71%
気圧1023hPa
METARNZCH 172330Z AUTO 23011KT 9999 BKN038/// 09/04 Q1023 NOSIG
過去の天気等 Google飛行場航空写真 Wunderground天気予報

過去48時間のMETAR

飛行場予報(TAF)
発表時間: 6/18 11:02 NZST (6/17 23:02 UTC)
予報対象時間: 18日12時 NZST ~ 19日12時 NZST
風向・風速西南西 5m/s
視程10km以上
少しの雲 雲底高度 910m
18日17時 NZST ~ 18日19時 NZST に徐々に
風向・風速西北西 3m/s
18日22時 NZST から 確率 30% で
視程500m
天気現象
19日9時 NZST ~ 19日11時 NZST に徐々に
風向・風速北北東 5m/s
TAF NZCH 172302Z 1800/1900 24010KT 9999 FEW030
BECMG 1805/1807 30005KT
PROB30 1810/1818 0500 FG
BECMG 1821/1823 02010KT